This is the latest recevied weather packets stored in our database for station/object EA6AMI-5. If no packets are shown the sender has not sent any weather packets the latest 10 day(s).
| Time | Temp. | Humidity | Pressure | Rain* | Wind** | Luminosity | Snow |
|---|---|---|---|---|---|---|---|
| 1787852163 | 27.78° C | 71% | 1013 hPa | 0 mm | - | 6 W/m² | - |
| 1787851623 | 27.78° C | 72% | 1012.2 hPa | 0 mm | - | 15 W/m² | - |
| 1787851083 | 27.22° C | 71% | 1012 hPa | 0 mm | - | 20 W/m² | - |
| 1787850544 | 27.22° C | 72% | 1012 hPa | 0 mm | - | 49 W/m² | - |
| 1787850003 | 27.78° C | 71% | 1011.9 hPa | 0 mm | - | 21 W/m² | - |
| 1787849643 | 27.78° C | 72% | 1012.2 hPa | 0 mm | - | 12 W/m² | - |
| 1787849104 | 28.89° C | 63% | 1012.5 hPa | 0 mm | - | 10 W/m² | - |
| 1787848563 | 28.33° C | 63% | 1012.7 hPa | 0 mm | - | 16 W/m² | - |
| 1787848023 | 28.33° C | 67% | 1013.1 hPa | 0 mm | - | 20 W/m² | - |
| 1787847484 | 28.33° C | 69% | 1014.5 hPa | 0 mm | - | 35 W/m² | - |
| 1787846944 | 28.33° C | 68% | 1014.2 hPa | 0 mm | - | 32 W/m² | - |
| 1787846404 | 28.33° C | 67% | 1013.9 hPa | 0 mm | - | 49 W/m² | - |
| 1787846044 | 28.89° C | 67% | 1013.9 hPa | 0 mm | - | 55 W/m² | - |
| 1787845503 | 28.89° C | 67% | 1014 hPa | 0 mm | - | 88 W/m² | - |
| 1787844963 | 28.89° C | 67% | 1013.7 hPa | 0 mm | - | 90 W/m² | - |
| 1787844423 | 28.89° C | 68% | 1013.6 hPa | 0 mm | - | 101 W/m² | - |
| 1787843884 | 28.89° C | 67% | 1013.3 hPa | 0 mm | - | 124 W/m² | - |
| 1787843343 | 29.44° C | 66% | 1013.5 hPa | 0 mm | - | 125 W/m² | - |
| 1787842803 | 29.44° C | 65% | 1013.3 hPa | 0 mm | - | 156 W/m² | - |
| 1787842444 | 29.44° C | 65% | 1013.3 hPa | 0 mm | - | 185 W/m² | - |
| 1787841904 | 30° C | 65% | 1013.3 hPa | 0 mm | - | 177 W/m² | - |
| 1787841363 | 30° C | 63% | 1013.4 hPa | 0 mm | - | 445 W/m² | - |
| 1787840823 | 30° C | 63% | 1013.5 hPa | 0 mm | - | 391 W/m² | - |
| 1787840283 | 30° C | 63% | 1013.6 hPa | 0 mm | - | 496 W/m² | - |
| 1787839743 | 30° C | 61% | 1013.5 hPa | 0 mm | - | 309 W/m² | - |
* Rain latest hour (hover to see other rain measurements)
** Current wind speed in m/s (hover to see current wind gust speed)